sensor_id;sensor_type;location;lat;lon;timestamp;P1;durP1;ratioP1;P2;durP2;ratioP2
77409;SDS011;66481;51.332;22.804;2023-06-10T00:01:20;9.80;;;6.38;;
77409;SDS011;66481;51.332;22.804;2023-06-10T00:05:21;7.57;;;6.90;;
77409;SDS011;66481;51.332;22.804;2023-06-10T00:09:22;7.97;;;6.38;;
77409;SDS011;66481;51.332;22.804;2023-06-10T00:13:23;7.05;;;6.35;;
77409;SDS011;66481;51.332;22.804;2023-06-10T00:17:24;7.78;;;6.70;;
77409;SDS011;66481;51.332;22.804;2023-06-10T00:21:25;7.78;;;6.35;;
77409;SDS011;66481;51.332;22.804;2023-06-10T00:25:27;6.32;;;5.78;;
77409;SDS011;66481;51.332;22.804;2023-06-10T00:29:28;7.05;;;6.25;;
77409;SDS011;66481;51.332;22.804;2023-06-10T00:33:29;7.78;;;6.22;;
77409;SDS011;66481;51.332;22.804;2023-06-10T00:37:30;7.32;;;6.60;;
77409;SDS011;66481;51.332;22.804;2023-06-10T00:41:32;11.20;;;6.32;;
77409;SDS011;66481;51.332;22.804;2023-06-10T00:45:34;8.55;;;6.78;;
77409;SDS011;66481;51.332;22.804;2023-06-10T00:49:35;7.18;;;6.10;;
77409;SDS011;66481;51.332;22.804;2023-06-10T00:53:36;6.82;;;6.22;;
77409;SDS011;66481;51.332;22.804;2023-06-10T00:57:42;6.93;;;6.28;;
77409;SDS011;66481;51.332;22.804;2023-06-10T01:01:45;8.02;;;6.30;;
77409;SDS011;66481;51.332;22.804;2023-06-10T01:05:49;7.43;;;6.70;;
77409;SDS011;66481;51.332;22.804;2023-06-10T01:10:11;7.55;;;6.38;;
77409;SDS011;66481;51.332;22.804;2023-06-10T01:14:20;9.75;;;6.80;;
77409;SDS011;66481;51.332;22.804;2023-06-10T01:18:22;7.03;;;6.32;;
77409;SDS011;66481;51.332;22.804;2023-06-10T01:22:24;7.28;;;6.25;;
77409;SDS011;66481;51.332;22.804;2023-06-10T01:26:29;6.95;;;5.95;;
77409;SDS011;66481;51.332;22.804;2023-06-10T01:30:36;7.93;;;6.95;;
77409;SDS011;66481;51.332;22.804;2023-06-10T01:34:49;7.45;;;6.72;;
77409;SDS011;66481;51.332;22.804;2023-06-10T01:38:50;8.05;;;6.60;;
77409;SDS011;66481;51.332;22.804;2023-06-10T01:42:54;11.00;;;6.85;;
77409;SDS011;66481;51.332;22.804;2023-06-10T01:46:55;10.50;;;6.75;;
77409;SDS011;66481;51.332;22.804;2023-06-10T01:50:56;8.40;;;7.57;;
77409;SDS011;66481;51.332;22.804;2023-06-10T01:54:57;9.30;;;7.88;;
77409;SDS011;66481;51.332;22.804;2023-06-10T01:58:58;8.35;;;6.95;;
77409;SDS011;66481;51.332;22.804;2023-06-10T02:02:59;7.25;;;6.60;;
77409;SDS011;66481;51.332;22.804;2023-06-10T02:07:00;6.65;;;5.88;;
77409;SDS011;66481;51.332;22.804;2023-06-10T02:11:04;7.95;;;6.97;;
77409;SDS011;66481;51.332;22.804;2023-06-10T02:15:05;6.18;;;5.50;;
77409;SDS011;66481;51.332;22.804;2023-06-10T02:19:06;5.57;;;5.07;;
77409;SDS011;66481;51.332;22.804;2023-06-10T02:23:07;6.75;;;5.00;;
77409;SDS011;66481;51.332;22.804;2023-06-10T02:27:08;8.20;;;6.05;;
77409;SDS011;66481;51.332;22.804;2023-06-10T02:31:09;6.15;;;5.43;;
77409;SDS011;66481;51.332;22.804;2023-06-10T02:35:10;6.30;;;5.45;;
77409;SDS011;66481;51.332;22.804;2023-06-10T02:39:13;8.10;;;6.70;;
77409;SDS011;66481;51.332;22.804;2023-06-10T02:43:13;8.13;;;7.32;;
77409;SDS011;66481;51.332;22.804;2023-06-10T02:47:15;9.20;;;8.30;;
77409;SDS011;66481;51.332;22.804;2023-06-10T02:51:17;10.00;;;8.27;;
77409;SDS011;66481;51.332;22.804;2023-06-10T02:55:18;8.95;;;8.05;;
77409;SDS011;66481;51.332;22.804;2023-06-10T02:59:19;10.85;;;8.40;;
77409;SDS011;66481;51.332;22.804;2023-06-10T03:03:20;11.05;;;9.93;;
77409;SDS011;66481;51.332;22.804;2023-06-10T03:07:23;11.73;;;9.98;;
77409;SDS011;66481;51.332;22.804;2023-06-10T03:11:24;10.10;;;9.05;;
77409;SDS011;66481;51.332;22.804;2023-06-10T03:15:26;11.00;;;9.98;;
77409;SDS011;66481;51.332;22.804;2023-06-10T03:19:29;11.75;;;10.52;;
77409;SDS011;66481;51.332;22.804;2023-06-10T03:23:31;11.55;;;10.23;;
77409;SDS011;66481;51.332;22.804;2023-06-10T03:27:33;12.40;;;10.57;;
77409;SDS011;66481;51.332;22.804;2023-06-10T03:31:35;12.07;;;10.80;;
77409;SDS011;66481;51.332;22.804;2023-06-10T03:35:37;11.93;;;10.68;;
77409;SDS011;66481;51.332;22.804;2023-06-10T03:39:38;13.32;;;11.20;;
77409;SDS011;66481;51.332;22.804;2023-06-10T03:43:40;12.20;;;10.80;;
77409;SDS011;66481;51.332;22.804;2023-06-10T03:47:41;11.82;;;10.63;;
77409;SDS011;66481;51.332;22.804;2023-06-10T03:51:42;12.00;;;10.77;;
77409;SDS011;66481;51.332;22.804;2023-06-10T03:55:43;11.00;;;9.73;;
77409;SDS011;66481;51.332;22.804;2023-06-10T03:59:44;11.05;;;9.85;;
77409;SDS011;66481;51.332;22.804;2023-06-10T04:03:45;12.23;;;9.10;;
77409;SDS011;66481;51.332;22.804;2023-06-10T04:07:45;12.07;;;10.25;;
77409;SDS011;66481;51.332;22.804;2023-06-10T04:11:48;11.05;;;9.93;;
77409;SDS011;66481;51.332;22.804;2023-06-10T04:15:49;10.90;;;9.68;;
77409;SDS011;66481;51.332;22.804;2023-06-10T04:19:51;12.15;;;9.68;;
77409;SDS011;66481;51.332;22.804;2023-06-10T04:23:52;10.40;;;9.25;;
77409;SDS011;66481;51.332;22.804;2023-06-10T04:27:54;10.77;;;9.68;;
77409;SDS011;66481;51.332;22.804;2023-06-10T04:31:55;11.40;;;9.77;;
77409;SDS011;66481;51.332;22.804;2023-06-10T04:35:56;10.00;;;8.90;;
77409;SDS011;66481;51.332;22.804;2023-06-10T04:39:58;10.52;;;9.25;;
77409;SDS011;66481;51.332;22.804;2023-06-10T04:43:59;9.45;;;8.45;;
77409;SDS011;66481;51.332;22.804;2023-06-10T04:48:00;9.85;;;8.48;;
77409;SDS011;66481;51.332;22.804;2023-06-10T04:52:01;12.82;;;8.95;;
77409;SDS011;66481;51.332;22.804;2023-06-10T04:56:04;13.07;;;9.77;;
77409;SDS011;66481;51.332;22.804;2023-06-10T05:00:05;13.13;;;9.60;;
77409;SDS011;66481;51.332;22.804;2023-06-10T05:04:07;9.90;;;8.38;;
77409;SDS011;66481;51.332;22.804;2023-06-10T05:08:09;10.45;;;8.13;;
77409;SDS011;66481;51.332;22.804;2023-06-10T05:12:10;11.25;;;8.38;;
77409;SDS011;66481;51.332;22.804;2023-06-10T05:16:12;9.60;;;7.07;;
77409;SDS011;66481;51.332;22.804;2023-06-10T05:20:13;9.43;;;7.28;;
77409;SDS011;66481;51.332;22.804;2023-06-10T05:24:15;8.20;;;6.43;;
77409;SDS011;66481;51.332;22.804;2023-06-10T05:28:16;8.20;;;7.28;;
77409;SDS011;66481;51.332;22.804;2023-06-10T05:32:17;7.70;;;6.53;;
77409;SDS011;66481;51.332;22.804;2023-06-10T05:36:18;9.57;;;8.38;;
77409;SDS011;66481;51.332;22.804;2023-06-10T05:40:19;8.68;;;6.20;;
77409;SDS011;66481;51.332;22.804;2023-06-10T05:44:20;8.93;;;6.93;;
77409;SDS011;66481;51.332;22.804;2023-06-10T05:48:22;5.03;;;4.53;;
77409;SDS011;66481;51.332;22.804;2023-06-10T05:52:22;6.53;;;5.82;;
77409;SDS011;66481;51.332;22.804;2023-06-10T05:56:23;5.80;;;5.18;;
77409;SDS011;66481;51.332;22.804;2023-06-10T06:00:26;6.78;;;4.75;;
77409;SDS011;66481;51.332;22.804;2023-06-10T06:04:28;4.97;;;3.92;;
77409;SDS011;66481;51.332;22.804;2023-06-10T06:08:29;4.00;;;3.47;;
77409;SDS011;66481;51.332;22.804;2023-06-10T06:12:30;3.95;;;3.38;;
77409;SDS011;66481;51.332;22.804;2023-06-10T06:16:31;4.20;;;3.80;;
77409;SDS011;66481;51.332;22.804;2023-06-10T06:20:33;8.52;;;3.70;;
77409;SDS011;66481;51.332;22.804;2023-06-10T06:24:34;4.68;;;3.72;;
77409;SDS011;66481;51.332;22.804;2023-06-10T06:28:35;4.78;;;3.97;;
77409;SDS011;66481;51.332;22.804;2023-06-10T06:32:36;7.53;;;4.22;;
77409;SDS011;66481;51.332;22.804;2023-06-10T06:36:38;5.22;;;4.03;;
77409;SDS011;66481;51.332;22.804;2023-06-10T06:40:39;4.93;;;4.40;;
77409;SDS011;66481;51.332;22.804;2023-06-10T06:44:40;4.72;;;4.22;;
77409;SDS011;66481;51.332;22.804;2023-06-10T06:48:41;5.22;;;3.83;;
77409;SDS011;66481;51.332;22.804;2023-06-10T06:52:42;4.30;;;3.90;;
77409;SDS011;66481;51.332;22.804;2023-06-10T06:56:43;5.65;;;4.03;;
77409;SDS011;66481;51.332;22.804;2023-06-10T07:00:45;4.70;;;4.07;;
77409;SDS011;66481;51.332;22.804;2023-06-10T07:04:46;4.57;;;4.18;;
77409;SDS011;66481;51.332;22.804;2023-06-10T07:08:50;4.57;;;4.18;;
77409;SDS011;66481;51.332;22.804;2023-06-10T07:12:52;4.28;;;3.85;;
77409;SDS011;66481;51.332;22.804;2023-06-10T07:16:53;5.43;;;4.88;;
77409;SDS011;66481;51.332;22.804;2023-06-10T07:20:54;4.72;;;4.30;;
77409;SDS011;66481;51.332;22.804;2023-06-10T07:24:55;6.07;;;5.43;;
77409;SDS011;66481;51.332;22.804;2023-06-10T07:28:56;5.50;;;5.00;;
77409;SDS011;66481;51.332;22.804;2023-06-10T07:32:58;5.65;;;5.10;;
77409;SDS011;66481;51.332;22.804;2023-06-10T07:37:01;5.72;;;5.13;;
77409;SDS011;66481;51.332;22.804;2023-06-10T07:41:02;6.28;;;5.68;;
77409;SDS011;66481;51.332;22.804;2023-06-10T07:45:04;6.57;;;5.90;;
77409;SDS011;66481;51.332;22.804;2023-06-10T07:49:06;6.82;;;5.65;;
77409;SDS011;66481;51.332;22.804;2023-06-10T07:53:08;6.35;;;5.75;;
77409;SDS011;66481;51.332;22.804;2023-06-10T07:57:09;7.53;;;6.38;;
77409;SDS011;66481;51.332;22.804;2023-06-10T08:01:10;6.53;;;5.82;;
77409;SDS011;66481;51.332;22.804;2023-06-10T08:05:12;6.68;;;5.97;;
77409;SDS011;66481;51.332;22.804;2023-06-10T08:09:13;7.65;;;6.32;;
77409;SDS011;66481;51.332;22.804;2023-06-10T08:13:14;8.10;;;6.30;;
77409;SDS011;66481;51.332;22.804;2023-06-10T08:17:15;7.63;;;6.93;;
77409;SDS011;66481;51.332;22.804;2023-06-10T08:21:17;9.00;;;8.10;;
77409;SDS011;66481;51.332;22.804;2023-06-10T08:25:18;7.55;;;6.68;;
77409;SDS011;66481;51.332;22.804;2023-06-10T08:29:22;8.93;;;8.00;;
77409;SDS011;66481;51.332;22.804;2023-06-10T08:33:24;10.55;;;8.48;;
77409;SDS011;66481;51.332;22.804;2023-06-10T08:37:25;10.20;;;7.43;;
77409;SDS011;66481;51.332;22.804;2023-06-10T08:41:28;10.02;;;8.98;;
77409;SDS011;66481;51.332;22.804;2023-06-10T08:45:31;9.25;;;8.35;;
77409;SDS011;66481;51.332;22.804;2023-06-10T08:49:33;10.63;;;9.13;;
77409;SDS011;66481;51.332;22.804;2023-06-10T08:53:42;9.70;;;8.80;;
77409;SDS011;66481;51.332;22.804;2023-06-10T08:57:51;8.27;;;7.25;;
77409;SDS011;66481;51.332;22.804;2023-06-10T09:01:53;8.85;;;7.95;;
77409;SDS011;66481;51.332;22.804;2023-06-10T09:05:55;8.05;;;6.47;;
77409;SDS011;66481;51.332;22.804;2023-06-10T09:09:57;7.60;;;6.85;;
77409;SDS011;66481;51.332;22.804;2023-06-10T09:14:03;7.35;;;6.75;;
77409;SDS011;66481;51.332;22.804;2023-06-10T09:18:04;6.93;;;6.25;;
77409;SDS011;66481;51.332;22.804;2023-06-10T09:22:06;7.15;;;6.25;;
77409;SDS011;66481;51.332;22.804;2023-06-10T09:26:09;7.35;;;5.78;;
77409;SDS011;66481;51.332;22.804;2023-06-10T09:30:22;6.20;;;5.55;;
77409;SDS011;66481;51.332;22.804;2023-06-10T09:34:26;6.32;;;5.72;;
77409;SDS011;66481;51.332;22.804;2023-06-10T09:38:31;6.38;;;5.05;;
77409;SDS011;66481;51.332;22.804;2023-06-10T09:42:33;6.50;;;4.82;;
77409;SDS011;66481;51.332;22.804;2023-06-10T09:46:36;4.88;;;4.43;;
77409;SDS011;66481;51.332;22.804;2023-06-10T09:50:44;5.53;;;4.95;;
77409;SDS011;66481;51.332;22.804;2023-06-10T09:54:46;6.43;;;5.80;;
77409;SDS011;66481;51.332;22.804;2023-06-10T09:58:47;6.32;;;5.35;;
77409;SDS011;66481;51.332;22.804;2023-06-10T10:02:53;7.03;;;5.72;;
77409;SDS011;66481;51.332;22.804;2023-06-10T10:06:55;6.93;;;5.43;;
77409;SDS011;66481;51.332;22.804;2023-06-10T10:11:00;6.30;;;5.57;;
77409;SDS011;66481;51.332;22.804;2023-06-10T10:19:07;6.55;;;5.95;;
77409;SDS011;66481;51.332;22.804;2023-06-10T10:23:13;7.25;;;6.20;;
77409;SDS011;66481;51.332;22.804;2023-06-10T10:27:33;6.65;;;5.90;;
77409;SDS011;66481;51.332;22.804;2023-06-10T10:31:37;7.30;;;6.03;;
77409;SDS011;66481;51.332;22.804;2023-06-10T10:35:40;6.72;;;5.93;;
77409;SDS011;66481;51.332;22.804;2023-06-10T10:39:42;7.68;;;6.88;;
77409;SDS011;66481;51.332;22.804;2023-06-10T10:43:43;6.50;;;5.90;;
77409;SDS011;66481;51.332;22.804;2023-06-10T10:47:48;6.82;;;6.03;;
77409;SDS011;66481;51.332;22.804;2023-06-10T10:51:56;6.70;;;6.10;;
77409;SDS011;66481;51.332;22.804;2023-06-10T10:56:12;6.20;;;5.60;;
77409;SDS011;66481;51.332;22.804;2023-06-10T11:00:24;7.38;;;6.70;;
77409;SDS011;66481;51.332;22.804;2023-06-10T11:04:29;6.88;;;6.28;;
77409;SDS011;66481;51.332;22.804;2023-06-10T11:12:54;8.52;;;6.45;;
77409;SDS011;66481;51.332;22.804;2023-06-10T11:16:59;7.63;;;6.93;;
77409;SDS011;66481;51.332;22.804;2023-06-10T11:21:02;7.90;;;7.10;;
77409;SDS011;66481;51.332;22.804;2023-06-10T11:25:05;7.60;;;6.90;;
77409;SDS011;66481;51.332;22.804;2023-06-10T11:29:15;7.65;;;6.95;;
77409;SDS011;66481;51.332;22.804;2023-06-10T11:33:17;8.68;;;7.60;;
77409;SDS011;66481;51.332;22.804;2023-06-10T11:37:18;7.47;;;6.78;;
77409;SDS011;66481;51.332;22.804;2023-06-10T11:41:19;7.65;;;6.90;;
77409;SDS011;66481;51.332;22.804;2023-06-10T11:45:21;8.23;;;6.88;;
77409;SDS011;66481;51.332;22.804;2023-06-10T11:49:22;9.52;;;6.57;;
77409;SDS011;66481;51.332;22.804;2023-06-10T11:53:23;8.13;;;7.18;;
77409;SDS011;66481;51.332;22.804;2023-06-10T11:57:23;7.30;;;6.60;;
77409;SDS011;66481;51.332;22.804;2023-06-10T12:01:25;9.52;;;8.52;;
77409;SDS011;66481;51.332;22.804;2023-06-10T12:05:27;9.00;;;8.23;;
77409;SDS011;66481;51.332;22.804;2023-06-10T12:09:29;8.60;;;7.80;;
77409;SDS011;66481;51.332;22.804;2023-06-10T12:13:30;10.07;;;9.07;;
77409;SDS011;66481;51.332;22.804;2023-06-10T12:17:42;8.57;;;7.10;;
77409;SDS011;66481;51.332;22.804;2023-06-10T12:21:43;9.50;;;8.57;;
77409;SDS011;66481;51.332;22.804;2023-06-10T12:25:52;10.80;;;8.82;;
77409;SDS011;66481;51.332;22.804;2023-06-10T12:29:54;10.93;;;9.73;;
77409;SDS011;66481;51.332;22.804;2023-06-10T12:34:08;11.65;;;8.63;;
77409;SDS011;66481;51.332;22.804;2023-06-10T12:38:09;10.27;;;8.75;;
77409;SDS011;66481;51.332;22.804;2023-06-10T12:42:12;10.02;;;8.98;;
77409;SDS011;66481;51.332;22.804;2023-06-10T12:46:13;8.68;;;7.82;;
77409;SDS011;66481;51.332;22.804;2023-06-10T12:50:14;9.00;;;8.10;;
77409;SDS011;66481;51.332;22.804;2023-06-10T12:54:15;7.80;;;7.00;;
77409;SDS011;66481;51.332;22.804;2023-06-10T12:58:16;8.60;;;7.22;;
77409;SDS011;66481;51.332;22.804;2023-06-10T13:02:18;7.80;;;6.95;;
77409;SDS011;66481;51.332;22.804;2023-06-10T13:06:20;7.63;;;6.82;;
77409;SDS011;66481;51.332;22.804;2023-06-10T13:10:21;9.02;;;6.55;;
77409;SDS011;66481;51.332;22.804;2023-06-10T13:14:23;7.97;;;6.70;;
77409;SDS011;66481;51.332;22.804;2023-06-10T13:18:24;8.10;;;6.50;;
77409;SDS011;66481;51.332;22.804;2023-06-10T13:22:29;8.30;;;6.28;;
77409;SDS011;66481;51.332;22.804;2023-06-10T13:26:31;6.22;;;5.63;;
77409;SDS011;66481;51.332;22.804;2023-06-10T13:30:32;7.43;;;6.28;;
77409;SDS011;66481;51.332;22.804;2023-06-10T13:34:35;8.88;;;7.97;;
77409;SDS011;66481;51.332;22.804;2023-06-10T13:38:37;8.95;;;8.07;;
77409;SDS011;66481;51.332;22.804;2023-06-10T13:42:38;9.18;;;7.95;;
77409;SDS011;66481;51.332;22.804;2023-06-10T13:46:40;10.68;;;9.48;;
77409;SDS011;66481;51.332;22.804;2023-06-10T13:50:41;9.05;;;8.18;;
77409;SDS011;66481;51.332;22.804;2023-06-10T13:54:46;9.02;;;8.20;;
77409;SDS011;66481;51.332;22.804;2023-06-10T13:58:47;9.85;;;8.95;;
77409;SDS011;66481;51.332;22.804;2023-06-10T14:02:48;10.15;;;9.35;;
77409;SDS011;66481;51.332;22.804;2023-06-10T14:06:49;10.57;;;9.63;;
77409;SDS011;66481;51.332;22.804;2023-06-10T14:10:50;10.48;;;9.45;;
77409;SDS011;66481;51.332;22.804;2023-06-10T14:14:52;9.63;;;8.68;;
77409;SDS011;66481;51.332;22.804;2023-06-10T14:18:53;11.07;;;10.00;;
77409;SDS011;66481;51.332;22.804;2023-06-10T14:22:54;11.57;;;10.48;;
77409;SDS011;66481;51.332;22.804;2023-06-10T14:26:55;10.60;;;9.48;;
77409;SDS011;66481;51.332;22.804;2023-06-10T14:30:59;12.15;;;9.50;;
77409;SDS011;66481;51.332;22.804;2023-06-10T14:35:00;11.95;;;10.85;;
77409;SDS011;66481;51.332;22.804;2023-06-10T14:39:01;11.20;;;10.13;;
77409;SDS011;66481;51.332;22.804;2023-06-10T14:43:02;12.00;;;10.77;;
77409;SDS011;66481;51.332;22.804;2023-06-10T14:47:10;10.57;;;9.45;;
77409;SDS011;66481;51.332;22.804;2023-06-10T14:51:11;8.38;;;7.57;;
77409;SDS011;66481;51.332;22.804;2023-06-10T14:55:13;5.88;;;5.28;;
77409;SDS011;66481;51.332;22.804;2023-06-10T14:59:14;5.53;;;4.72;;
77409;SDS011;66481;51.332;22.804;2023-06-10T15:03:16;6.97;;;5.90;;
77409;SDS011;66481;51.332;22.804;2023-06-10T15:07:17;6.45;;;5.82;;
77409;SDS011;66481;51.332;22.804;2023-06-10T15:11:18;7.15;;;6.47;;
77409;SDS011;66481;51.332;22.804;2023-06-10T15:19:23;6.95;;;6.35;;
77409;SDS011;66481;51.332;22.804;2023-06-10T15:23:24;7.05;;;6.35;;
77409;SDS011;66481;51.332;22.804;2023-06-10T15:27:25;6.97;;;6.25;;
77409;SDS011;66481;51.332;22.804;2023-06-10T15:31:26;7.50;;;6.90;;
77409;SDS011;66481;51.332;22.804;2023-06-10T15:35:27;8.52;;;7.65;;
77409;SDS011;66481;51.332;22.804;2023-06-10T15:39:28;8.52;;;7.63;;
77409;SDS011;66481;51.332;22.804;2023-06-10T15:43:31;7.00;;;6.32;;
77409;SDS011;66481;51.332;22.804;2023-06-10T15:47:32;7.00;;;6.30;;
77409;SDS011;66481;51.332;22.804;2023-06-10T15:51:33;8.75;;;7.95;;
77409;SDS011;66481;51.332;22.804;2023-06-10T15:55:34;9.20;;;8.32;;
77409;SDS011;66481;51.332;22.804;2023-06-10T15:59:36;8.68;;;7.88;;
77409;SDS011;66481;51.332;22.804;2023-06-10T16:03:37;9.00;;;8.18;;
77409;SDS011;66481;51.332;22.804;2023-06-10T16:07:39;10.85;;;8.00;;
77409;SDS011;66481;51.332;22.804;2023-06-10T16:11:41;8.70;;;7.72;;
77409;SDS011;66481;51.332;22.804;2023-06-10T16:15:42;8.82;;;8.00;;
77409;SDS011;66481;51.332;22.804;2023-06-10T16:19:44;8.43;;;7.72;;
77409;SDS011;66481;51.332;22.804;2023-06-10T16:23:45;10.23;;;8.32;;
77409;SDS011;66481;51.332;22.804;2023-06-10T16:27:47;8.75;;;7.95;;
77409;SDS011;66481;51.332;22.804;2023-06-10T16:31:48;7.68;;;7.03;;
77409;SDS011;66481;51.332;22.804;2023-06-10T16:35:49;8.32;;;7.55;;
77409;SDS011;66481;51.332;22.804;2023-06-10T16:39:50;9.23;;;8.30;;
77409;SDS011;66481;51.332;22.804;2023-06-10T16:43:54;9.85;;;8.93;;
77409;SDS011;66481;51.332;22.804;2023-06-10T16:47:55;10.32;;;9.30;;
77409;SDS011;66481;51.332;22.804;2023-06-10T16:51:56;9.95;;;8.73;;
77409;SDS011;66481;51.332;22.804;2023-06-10T16:55:57;9.25;;;8.35;;
77409;SDS011;66481;51.332;22.804;2023-06-10T16:59:58;9.85;;;8.90;;
77409;SDS011;66481;51.332;22.804;2023-06-10T17:04:00;10.68;;;9.02;;
77409;SDS011;66481;51.332;22.804;2023-06-10T17:08:01;10.88;;;9.80;;
77409;SDS011;66481;51.332;22.804;2023-06-10T17:12:02;11.30;;;10.05;;
77409;SDS011;66481;51.332;22.804;2023-06-10T17:16:04;13.00;;;11.75;;
77409;SDS011;66481;51.332;22.804;2023-06-10T17:20:06;12.60;;;11.35;;
77409;SDS011;66481;51.332;22.804;2023-06-10T17:24:07;13.98;;;12.10;;
77409;SDS011;66481;51.332;22.804;2023-06-10T17:28:09;14.32;;;12.13;;
77409;SDS011;66481;51.332;22.804;2023-06-10T17:32:10;15.27;;;12.73;;
77409;SDS011;66481;51.332;22.804;2023-06-10T17:36:11;13.98;;;12.15;;
77409;SDS011;66481;51.332;22.804;2023-06-10T17:40:13;13.85;;;12.43;;
77409;SDS011;66481;51.332;22.804;2023-06-10T17:44:15;16.48;;;13.98;;
77409;SDS011;66481;51.332;22.804;2023-06-10T17:48:22;15.55;;;13.32;;
77409;SDS011;66481;51.332;22.804;2023-06-10T17:52:23;17.25;;;14.20;;
77409;SDS011;66481;51.332;22.804;2023-06-10T17:56:24;17.20;;;14.57;;
77409;SDS011;66481;51.332;22.804;2023-06-10T18:00:25;20.52;;;15.48;;
77409;SDS011;66481;51.332;22.804;2023-06-10T18:04:26;16.30;;;13.57;;
77409;SDS011;66481;51.332;22.804;2023-06-10T18:08:27;17.45;;;15.52;;
77409;SDS011;66481;51.332;22.804;2023-06-10T18:12:32;17.33;;;15.30;;
77409;SDS011;66481;51.332;22.804;2023-06-10T18:16:34;17.77;;;15.23;;
77409;SDS011;66481;51.332;22.804;2023-06-10T18:20:35;16.15;;;14.45;;
77409;SDS011;66481;51.332;22.804;2023-06-10T18:24:36;17.80;;;14.68;;
77409;SDS011;66481;51.332;22.804;2023-06-10T18:28:37;16.85;;;14.82;;
77409;SDS011;66481;51.332;22.804;2023-06-10T18:32:39;16.50;;;14.70;;
77409;SDS011;66481;51.332;22.804;2023-06-10T18:36:40;16.55;;;14.80;;
77409;SDS011;66481;51.332;22.804;2023-06-10T18:40:41;19.27;;;15.25;;
77409;SDS011;66481;51.332;22.804;2023-06-10T18:44:43;16.60;;;14.90;;
77409;SDS011;66481;51.332;22.804;2023-06-10T18:48:44;14.88;;;13.38;;
77409;SDS011;66481;51.332;22.804;2023-06-10T18:52:47;16.05;;;13.32;;
77409;SDS011;66481;51.332;22.804;2023-06-10T18:56:48;15.00;;;13.50;;
77409;SDS011;66481;51.332;22.804;2023-06-10T19:00:50;15.07;;;13.25;;
77409;SDS011;66481;51.332;22.804;2023-06-10T19:04:51;15.55;;;13.27;;
77409;SDS011;66481;51.332;22.804;2023-06-10T19:08:53;15.77;;;14.20;;
77409;SDS011;66481;51.332;22.804;2023-06-10T19:12:55;17.45;;;14.73;;
77409;SDS011;66481;51.332;22.804;2023-06-10T19:16:56;16.70;;;12.88;;
77409;SDS011;66481;51.332;22.804;2023-06-10T19:20:58;16.85;;;13.80;;
77409;SDS011;66481;51.332;22.804;2023-06-10T19:25:00;16.58;;;12.43;;
77409;SDS011;66481;51.332;22.804;2023-06-10T19:29:01;16.08;;;14.38;;
77409;SDS011;66481;51.332;22.804;2023-06-10T19:33:03;15.18;;;13.57;;
77409;SDS011;66481;51.332;22.804;2023-06-10T19:37:04;17.27;;;14.18;;
77409;SDS011;66481;51.332;22.804;2023-06-10T19:41:06;15.77;;;14.18;;
77409;SDS011;66481;51.332;22.804;2023-06-10T19:45:07;15.38;;;12.35;;
77409;SDS011;66481;51.332;22.804;2023-06-10T19:49:09;21.05;;;15.68;;
77409;SDS011;66481;51.332;22.804;2023-06-10T19:53:11;16.35;;;14.40;;
77409;SDS011;66481;51.332;22.804;2023-06-10T19:57:12;17.67;;;14.65;;
77409;SDS011;66481;51.332;22.804;2023-06-10T20:01:14;17.85;;;15.45;;
77409;SDS011;66481;51.332;22.804;2023-06-10T20:05:16;17.92;;;15.65;;
77409;SDS011;66481;51.332;22.804;2023-06-10T20:09:17;19.42;;;14.90;;
77409;SDS011;66481;51.332;22.804;2023-06-10T20:13:17;16.83;;;14.85;;
77409;SDS011;66481;51.332;22.804;2023-06-10T20:17:19;17.35;;;14.82;;
77409;SDS011;66481;51.332;22.804;2023-06-10T20:21:24;17.02;;;14.57;;
77409;SDS011;66481;51.332;22.804;2023-06-10T20:25:26;16.50;;;14.48;;
77409;SDS011;66481;51.332;22.804;2023-06-10T20:29:28;15.45;;;13.70;;
77409;SDS011;66481;51.332;22.804;2023-06-10T20:33:29;17.98;;;14.02;;
77409;SDS011;66481;51.332;22.804;2023-06-10T20:37:31;16.38;;;14.50;;
77409;SDS011;66481;51.332;22.804;2023-06-10T20:41:32;16.77;;;14.27;;
77409;SDS011;66481;51.332;22.804;2023-06-10T20:45:35;16.67;;;14.75;;
77409;SDS011;66481;51.332;22.804;2023-06-10T20:49:36;17.02;;;14.73;;
77409;SDS011;66481;51.332;22.804;2023-06-10T20:53:38;17.50;;;15.60;;
77409;SDS011;66481;51.332;22.804;2023-06-10T20:57:40;16.63;;;13.27;;
77409;SDS011;66481;51.332;22.804;2023-06-10T21:01:41;16.27;;;14.52;;
77409;SDS011;66481;51.332;22.804;2023-06-10T21:05:43;16.58;;;14.75;;
77409;SDS011;66481;51.332;22.804;2023-06-10T21:09:47;18.30;;;14.32;;
77409;SDS011;66481;51.332;22.804;2023-06-10T21:13:48;16.65;;;13.90;;
77409;SDS011;66481;51.332;22.804;2023-06-10T21:17:49;15.32;;;13.35;;
77409;SDS011;66481;51.332;22.804;2023-06-10T21:21:51;15.98;;;13.55;;
77409;SDS011;66481;51.332;22.804;2023-06-10T21:25:52;17.70;;;13.88;;
77409;SDS011;66481;51.332;22.804;2023-06-10T21:29:53;16.20;;;12.27;;
77409;SDS011;66481;51.332;22.804;2023-06-10T21:33:54;13.98;;;12.20;;
77409;SDS011;66481;51.332;22.804;2023-06-10T21:37:55;15.35;;;12.88;;
77409;SDS011;66481;51.332;22.804;2023-06-10T21:41:56;16.67;;;12.38;;
77409;SDS011;66481;51.332;22.804;2023-06-10T21:45:58;15.52;;;12.32;;
77409;SDS011;66481;51.332;22.804;2023-06-10T21:49:58;14.60;;;12.70;;
77409;SDS011;66481;51.332;22.804;2023-06-10T21:53:59;19.60;;;12.48;;
77409;SDS011;66481;51.332;22.804;2023-06-10T21:58:01;13.68;;;11.10;;
77409;SDS011;66481;51.332;22.804;2023-06-10T22:02:02;15.18;;;11.88;;
77409;SDS011;66481;51.332;22.804;2023-06-10T22:06:04;14.70;;;11.98;;
77409;SDS011;66481;51.332;22.804;2023-06-10T22:10:06;17.35;;;12.25;;
77409;SDS011;66481;51.332;22.804;2023-06-10T22:14:08;15.13;;;12.45;;
77409;SDS011;66481;51.332;22.804;2023-06-10T22:18:11;12.02;;;10.45;;
77409;SDS011;66481;51.332;22.804;2023-06-10T22:22:13;14.82;;;11.27;;
77409;SDS011;66481;51.332;22.804;2023-06-10T22:26:14;16.90;;;10.63;;
77409;SDS011;66481;51.332;22.804;2023-06-10T22:30:15;13.23;;;11.70;;
77409;SDS011;66481;51.332;22.804;2023-06-10T22:34:17;13.38;;;11.35;;
77409;SDS011;66481;51.332;22.804;2023-06-10T22:38:19;14.32;;;11.48;;
77409;SDS011;66481;51.332;22.804;2023-06-10T22:42:20;14.70;;;11.70;;
77409;SDS011;66481;51.332;22.804;2023-06-10T22:46:22;16.73;;;12.00;;
77409;SDS011;66481;51.332;22.804;2023-06-10T22:50:23;15.65;;;11.98;;
77409;SDS011;66481;51.332;22.804;2023-06-10T22:54:25;11.90;;;10.57;;
77409;SDS011;66481;51.332;22.804;2023-06-10T23:14:13;15.25;;;10.40;;
77409;SDS011;66481;51.332;22.804;2023-06-10T23:18:14;14.65;;;11.80;;
77409;SDS011;66481;51.332;22.804;2023-06-10T23:22:17;15.65;;;12.32;;
77409;SDS011;66481;51.332;22.804;2023-06-10T23:26:19;16.10;;;11.18;;
77409;SDS011;66481;51.332;22.804;2023-06-10T23:30:20;17.17;;;11.15;;
77409;SDS011;66481;51.332;22.804;2023-06-10T23:34:21;13.27;;;11.10;;
77409;SDS011;66481;51.332;22.804;2023-06-10T23:38:22;19.17;;;13.25;;
77409;SDS011;66481;51.332;22.804;2023-06-10T23:42:23;15.35;;;11.55;;
77409;SDS011;66481;51.332;22.804;2023-06-10T23:46:27;14.88;;;10.57;;
77409;SDS011;66481;51.332;22.804;2023-06-10T23:50:32;17.65;;;11.60;;
77409;SDS011;66481;51.332;22.804;2023-06-10T23:54:36;15.23;;;11.70;;
77409;SDS011;66481;51.332;22.804;2023-06-10T23:58:37;14.48;;;10.65;;
